Maryland Science Center, MD

5:28 AM EST on January 27, 2015 (GMT -0500)
Southwest Baltimore Co | Change Station
CLOSE
Current Station
Personal Weather Station
Location: Halethorpe, MD
Elevation: 86 ft
Nearby Weather Stations
Active Advisory: Winter Weather Advisory Active Notice: Public Information Statement

Elev 86 ft 39.24 °N, 76.70 °W | Updated 4 minutes ago

Overcast
Overcast
28.2 °F
Feels Like 23 °F
N
5.0
Wind Variable Wind from NNW
Gusts 14.0 mph

Today
High -- | Low -- °F
--% Chance of Precip.
Yesterday
High -- | Low -- °F
Precip. -- in
7:17 AM 5:20 PM
First Quarter, 53% visible
Pressure 29.73 in
Visibility 7.0 miles
Clouds Overcast 3000 ft
Windchill 23 °F
Dew Point 22 °F
Humidity 79%
Rainfall 0.00 in
Snow Depth Not available.
UV 0.0 out of 12
Pollen .10 out of 12
Air Quality Not available.
Flu Activity Not available.
METAR KBWI 270954Z 33006KT 7SM -SN OVC030 M02/M06 A2973 RMK AO2 SLP068 P0000 T10221056

More Conditions Fewer Conditions

Pressure 29.73 in
Visibility 7.0 miles
Clouds Overcast 3000 ft
Windchill 23 °F
Dew Point 22 °F
Humidity 79%
Rainfall 0.00 in
Snow Depth Not available.
UV 0.0 out of 12
Pollen .10 out of 12
Air Quality Not available.
Flu Activity Not available.
METAR KBWI 270954Z 33006KT 7SM -SN OVC030 M02/M06 A2973 RMK AO2 SLP068 P0000 T10221056

More Conditions Fewer Conditions

Nowcast | as of 4:14 am EST on January 27, 2015

Through 6 am...bands of light snow and snow showers will continue to develop and impact portions of the Baltimore and Washington DC Metro areas...central and northern Virginia and the Shenandoah Valley. Additional snowfall accumulations of one half to one inch will be possible with any bursts of moderate snow. Visibiltiies may also be reduced briefly to below one half mile at times. Temperatures will remain in the 20s in most locations and any falling snow will make roadways...bridges and overpasses slippery this morning. Motorists are urged to drive with caution.

×

10-Day Weather Forecast

Almanac

Astronomy

Jan. 27, 2015 Rise Set
Actual Time
Civil Twilight
Nautical Twilight
Astronomical Twilight
Moon
Length of Visible Light
Length of Day
Tomorrow will be .
, % of the Moon is Illuminated

Today's Extremes

State Highs State Lows

Community

WunderPhotos

Upload Photos

1,790,562 photos uploaded!

WunderBlogs® & News

Nearby

Air Quality

  Air Quality AQ Index Pollutant
Not available.

Snow Depth

Station Depth Elevation

Earthquake Activity

City Distance Mag. Time & Date
Minimum magnitude displayed is 2.5.

Coastal Water Temperatures

Place Temperature

Nearby Weather Stations